This is the latest recevied weather packets stored in our database for station/object DG5MNJ. If no packets are shown the sender has not sent any weather packets the latest 10 day(s).
| Time | Temp. | Humidity | Pressure | Rain* | Wind** | Luminosity | Snow |
|---|---|---|---|---|---|---|---|
| 1777855502 | 15.56° C | 55% | 1013.7 hPa | 0 mm | - | 0 W/m² | - |
| 1777855202 | 15.56° C | 56% | 1013.6 hPa | 0 mm | - | 0 W/m² | - |
| 1777853701 | 15.56° C | 62% | 1013.4 hPa | 0 mm | - | 0 W/m² | - |
| 1777853102 | 15.56° C | 61% | 1013.4 hPa | 0 mm | - | 0 W/m² | - |
| 1777842003 | 17.22° C | 50% | 1011.3 hPa | 0 mm | - | 0 W/m² | - |
| 1777840202 | 17.78° C | 48% | 1011.1 hPa | 0 mm | - | 0 W/m² | - |
| 1777839602 | 18.33° C | 48% | 1010.8 hPa | 0 mm | - | 0 W/m² | - |
| 1777839002 | 18.33° C | 47% | 1010.9 hPa | 0 mm | - | 0 W/m² | - |
| 1777838702 | 18.33° C | 48% | 1010.9 hPa | 0 mm | - | 0 W/m² | - |
| 1777834822 | 20.56° C | 42% | 1010.4 hPa | 0 mm | - | 0 W/m² | - |
| 1777833002 | 21.67° C | 40% | 1010.1 hPa | 0 mm | - | 0 W/m² | - |
| 1777832702 | 21.67° C | 40% | 1010.2 hPa | 0 mm | - | 0 W/m² | - |
| 1777830302 | 22.78° C | 36% | 1009.8 hPa | 0 mm | - | 28 W/m² | - |
| 1777830002 | 23.33° C | 35% | 1009.6 hPa | 0 mm | - | 35 W/m² | - |
| 1777828802 | 23.89° C | 34% | 1009.8 hPa | 0 mm | - | 48 W/m² | - |
| 1777828502 | 23.89° C | 32% | 1009.6 hPa | 0 mm | - | 48 W/m² | - |
| 1777828202 | 24.44° C | 32% | 1009.8 hPa | 0 mm | - | 55 W/m² | - |
| 1777824902 | 24.44° C | 34% | 1009.5 hPa | 0 mm | - | 162 W/m² | - |
| 1777824302 | 25° C | 33% | 1009.4 hPa | 0 mm | - | 198 W/m² | - |
| 1777823403 | 25° C | 32% | 1009.5 hPa | 0 mm | - | 202 W/m² | - |
| 1777823102 | 25° C | 32% | 1009.3 hPa | 0 mm | - | 208 W/m² | - |
| 1777818002 | 26.11° C | 30% | 1009.6 hPa | 0 mm | - | 546 W/m² | - |
| 1777816802 | 26.67° C | 30% | 1009.9 hPa | 0 mm | - | 694 W/m² | - |
| 1777813802 | 26.11° C | 31% | 1010.4 hPa | 0 mm | - | 728 W/m² | - |
| 1777813202 | 26.11° C | 32% | 1010.5 hPa | 0 mm | - | 812 W/m² | - |
* Rain latest hour (hover to see other rain measurements)
** Current wind speed in m/s (hover to see current wind gust speed)